Time;durP1;ratioP1;P1;durP2;ratioP2;P2;SDS_P1;SDS_P2;PMS_P1;PMS_P2;Temp;Humidity;BMP_temperature;BMP_pressure;BME280_temperature;BME280_humidity;BME280_pressure;Samples;Min_cycle;Max_cycle;Signal;HPM_P1;HPM_P2
2021/11/27 00:02:28;;;;;;;3.25;1.50;;;4.60;79.90;;;;;;5041394;28;20475;-67
2021/11/27 00:05:02;;;;;;;4.25;1.23;;;4.60;80.00;;;;;;4975626;28;20052;-67
2021/11/27 00:07:35;;;;;;;2.40;0.98;;;4.60;80.00;;;;;;4971096;28;20446;-66
2021/11/27 00:10:14;;;;;;;2.88;0.95;;;4.60;80.10;;;;;;4974507;28;20502;-67
2021/11/27 00:12:49;;;;;;;3.90;2.03;;;4.60;80.20;;;;;;4980719;28;20053;-67
2021/11/27 00:15:25;;;;;;;3.95;1.55;;;4.60;80.30;;;;;;4975373;28;20085;-67
2021/11/27 00:17:54;;;;;;;5.00;1.77;;;4.60;80.40;;;;;;4974728;28;20133;-70
2021/11/27 00:20:27;;;;;;;4.60;2.03;;;4.70;80.30;;;;;;4975585;28;20381;-68
2021/11/27 00:22:54;;;;;;;4.18;1.63;;;4.60;80.30;;;;;;4972457;28;20042;-67
2021/11/27 00:25:21;;;;;;;3.45;1.48;;;4.60;80.50;;;;;;4974202;28;20073;-67
2021/11/27 00:27:49;;;;;;;4.50;1.83;;;4.60;80.40;;;;;;4973516;28;20147;-68
2021/11/27 00:30:21;;;;;;;2.67;1.35;;;4.60;80.50;;;;;;5010447;28;20062;-68
2021/11/27 00:32:50;;;;;;;3.67;1.27;;;4.60;80.60;;;;;;4976415;28;20046;-68
2021/11/27 00:35:18;;;;;;;7.25;1.80;;;4.60;80.60;;;;;;4977621;28;20097;-67
2021/11/27 00:37:46;;;;;;;3.75;1.35;;;4.60;80.70;;;;;;4978427;28;20429;-68
2021/11/27 00:40:14;;;;;;;6.40;1.95;;;4.60;80.70;;;;;;4974993;28;20375;-67
2021/11/27 00:42:41;;;;;;;4.05;1.77;;;4.60;80.70;;;;;;4970603;28;20046;-67
2021/11/27 00:45:12;;;;;;;5.50;2.17;;;4.60;80.70;;;;;;4975148;28;20057;-67
2021/11/27 00:47:40;;;;;;;4.40;1.40;;;4.60;80.80;;;;;;4975087;28;20145;-67
2021/11/27 00:50:09;;;;;;;1.92;1.23;;;4.60;80.70;;;;;;4979731;28;20065;-67
2021/11/27 00:52:36;;;;;;;3.08;1.70;;;4.60;80.80;;;;;;4975289;28;20054;-68
2021/11/27 00:55:04;;;;;;;3.50;1.70;;;4.60;80.80;;;;;;4959675;28;20053;-70
2021/11/27 00:57:31;;;;;;;3.72;1.42;;;4.60;80.90;;;;;;4958008;28;20065;-66
2021/11/27 00:59:58;;;;;;;4.60;1.60;;;4.60;81.00;;;;;;4972351;28;20047;-67
2021/11/27 01:02:28;;;;;;;3.25;1.40;;;4.60;81.10;;;;;;4970656;28;20047;-67
2021/11/27 01:05:01;;;;;;;3.85;1.52;;;4.60;81.10;;;;;;4956935;28;20649;-67
2021/11/27 01:07:30;;;;;;;5.00;1.67;;;4.70;81.00;;;;;;4962523;28;20056;-70
2021/11/27 01:09:57;;;;;;;4.97;1.55;;;4.70;81.10;;;;;;4968187;28;20129;-69
2021/11/27 01:12:24;;;;;;;4.78;1.70;;;4.70;81.10;;;;;;4968391;28;20050;-69
2021/11/27 01:14:51;;;;;;;5.97;1.88;;;4.70;81.10;;;;;;4996596;28;20052;-68
2021/11/27 01:17:18;;;;;;;3.25;2.10;;;4.60;81.20;;;;;;5016428;28;20053;-68
2021/11/27 01:19:49;;;;;;;4.03;1.88;;;4.70;81.30;;;;;;4982789;28;20045;-68
2021/11/27 01:22:19;;;;;;;4.63;1.75;;;4.70;81.30;;;;;;4964169;28;21078;-69
2021/11/27 01:24:47;;;;;;;4.00;1.33;;;4.70;81.30;;;;;;4984221;28;20042;-68
2021/11/27 01:27:14;;;;;;;3.58;1.67;;;4.70;81.40;;;;;;4982040;28;20129;-70
2021/11/27 01:29:44;;;;;;;5.38;1.67;;;4.70;81.40;;;;;;4981697;28;20058;-68
2021/11/27 01:32:14;;;;;;;4.43;1.80;;;4.70;81.50;;;;;;4985574;28;20054;-68
2021/11/27 01:34:41;;;;;;;4.80;1.65;;;4.70;81.50;;;;;;4986017;28;20074;-66
2021/11/27 01:37:10;;;;;;;4.30;1.60;;;4.70;81.60;;;;;;4985040;28;20138;-68
2021/11/27 01:39:39;;;;;;;5.78;1.60;;;4.70;81.70;;;;;;4984287;28;20423;-69
2021/11/27 01:42:07;;;;;;;3.75;1.50;;;4.70;81.80;;;;;;4981695;28;20588;-67
2021/11/27 01:44:34;;;;;;;3.50;1.30;;;4.60;81.80;;;;;;4971654;28;20504;-70
2021/11/27 01:47:01;;;;;;;5.53;1.80;;;4.70;81.80;;;;;;4968483;28;20054;-69
2021/11/27 01:49:30;;;;;;;2.05;1.13;;;4.60;81.90;;;;;;4958798;28;20165;-68
2021/11/27 01:51:58;;;;;;;2.13;1.10;;;4.70;81.90;;;;;;4962284;28;20133;-69
2021/11/27 01:54:27;;;;;;;1.95;1.05;;;4.70;82.00;;;;;;4977228;28;20054;-68
2021/11/27 01:56:58;;;;;;;3.17;1.48;;;4.60;82.10;;;;;;4970238;28;20043;-69
2021/11/27 01:59:29;;;;;;;2.88;1.27;;;4.60;82.10;;;;;;4963994;28;20054;-68
2021/11/27 02:02:00;;;;;;;2.92;1.15;;;4.60;82.10;;;;;;4975277;28;20058;-67
2021/11/27 02:04:29;;;;;;;4.70;1.48;;;4.60;82.10;;;;;;4961805;28;20072;-68
2021/11/27 02:06:56;;;;;;;2.67;1.25;;;4.60;82.20;;;;;;4976104;28;20615;-69
2021/11/27 02:09:27;;;;;;;3.65;1.50;;;4.60;82.10;;;;;;4955769;28;20051;-69
2021/11/27 02:11:57;;;;;;;4.18;1.38;;;4.60;82.20;;;;;;4972826;28;20060;-68
2021/11/27 02:14:24;;;;;;;3.67;1.38;;;4.60;82.20;;;;;;4964485;28;20740;-69
2021/11/27 02:17:07;;;;;;;4.10;1.67;;;4.60;82.20;;;;;;4970315;28;20587;-68
2021/11/27 02:19:34;;;;;;;1.92;0.90;;;4.60;82.30;;;;;;4973331;28;20565;-68
2021/11/27 02:22:04;;;;;;;3.75;1.42;;;4.60;82.40;;;;;;4958060;28;20046;-68
2021/11/27 02:24:48;;;;;;;3.75;1.67;;;4.60;82.50;;;;;;4973790;28;20062;-68
2021/11/27 02:27:16;;;;;;;3.20;1.30;;;4.60;82.50;;;;;;4979435;28;20058;-67
2021/11/27 02:29:46;;;;;;;2.80;1.27;;;4.60;82.50;;;;;;4970223;28;20051;-68
2021/11/27 02:32:14;;;;;;;3.85;1.10;;;4.60;82.50;;;;;;4961012;28;20050;-67
2021/11/27 02:34:48;;;;;;;3.03;1.10;;;4.60;82.50;;;;;;4979972;28;20055;-67
2021/11/27 02:37:17;;;;;;;7.35;1.60;;;4.60;82.50;;;;;;4976469;28;20415;-67
2021/11/27 02:39:47;;;;;;;1.95;0.95;;;4.60;82.50;;;;;;4956111;28;20050;-68
2021/11/27 02:42:18;;;;;;;3.35;1.48;;;4.60;82.50;;;;;;4974305;28;20046;-67
2021/11/27 02:44:46;;;;;;;2.42;1.08;;;4.70;82.40;;;;;;4957762;28;20046;-69
2021/11/27 02:47:13;;;;;;;3.15;1.17;;;4.60;82.50;;;;;;4972576;28;20508;-67
2021/11/27 02:49:41;;;;;;;2.88;1.08;;;4.70;82.50;;;;;;4971362;28;20395;-69
2021/11/27 02:52:08;;;;;;;4.78;1.10;;;4.60;82.50;;;;;;4967964;28;20057;-67
2021/11/27 02:54:36;;;;;;;2.85;1.23;;;4.70;82.50;;;;;;4957177;28;20054;-68
2021/11/27 02:57:04;;;;;;;1.70;0.80;;;4.70;82.60;;;;;;4982276;28;20471;-68
2021/11/27 02:59:32;;;;;;;3.15;0.95;;;4.70;82.60;;;;;;4965222;28;20051;-68
2021/11/27 03:02:05;;;;;;;1.80;0.73;;;4.70;82.60;;;;;;4960634;28;20621;-67
2021/11/27 03:04:35;;;;;;;1.95;1.00;;;4.70;82.60;;;;;;4983589;28;20155;-69
2021/11/27 03:07:02;;;;;;;2.63;1.10;;;4.70;82.60;;;;;;5054706;28;20080;-67
2021/11/27 03:09:31;;;;;;;3.83;1.20;;;4.70;82.70;;;;;;4989839;28;20047;-69
2021/11/27 03:12:00;;;;;;;2.67;1.02;;;4.70;82.70;;;;;;4981956;28;20051;-66
2021/11/27 03:14:31;;;;;;;1.80;0.98;;;4.70;82.80;;;;;;4982563;28;20046;-67
2021/11/27 03:17:00;;;;;;;1.30;0.70;;;4.70;82.80;;;;;;4982379;28;20069;-66
2021/11/27 03:19:28;;;;;;;2.95;0.98;;;4.70;82.70;;;;;;4965561;28;21578;-68
2021/11/27 03:21:56;;;;;;;2.15;1.05;;;4.70;82.60;;;;;;4953486;28;20058;-68
2021/11/27 03:24:23;;;;;;;2.35;0.50;;;4.70;82.50;;;;;;4978758;28;20046;-69
2021/11/27 03:26:49;;;;;;;1.30;0.63;;;4.70;82.60;;;;;;4963960;28;20058;-69
2021/11/27 03:29:18;;;;;;;3.13;1.15;;;4.70;82.50;;;;;;4964624;28;20484;-67
2021/11/27 03:31:45;;;;;;;1.38;0.60;;;4.70;82.40;;;;;;4977656;28;20046;-69
2021/11/27 03:34:22;;;;;;;2.95;1.10;;;4.70;82.30;;;;;;4984970;28;20042;-70
2021/11/27 03:36:50;;;;;;;2.75;0.63;;;4.70;82.30;;;;;;4967201;28;20126;-69
2021/11/27 03:39:17;;;;;;;2.72;0.98;;;4.70;82.30;;;;;;4980899;28;20129;-66
2021/11/27 03:41:44;;;;;;;3.88;0.95;;;4.70;82.30;;;;;;4980782;28;20703;-69
2021/11/27 03:44:12;;;;;;;2.22;0.95;;;4.70;82.30;;;;;;4955800;28;20129;-70
2021/11/27 03:46:41;;;;;;;1.15;0.75;;;4.70;82.30;;;;;;4960364;28;20055;-68
2021/11/27 03:49:08;;;;;;;3.53;1.05;;;4.70;82.20;;;;;;4954829;28;20082;-68
2021/11/27 03:51:41;;;;;;;1.92;0.90;;;4.70;82.10;;;;;;4962196;28;20046;-67
2021/11/27 03:54:08;;;;;;;2.65;0.65;;;4.70;82.10;;;;;;4957640;28;20054;-68
2021/11/27 03:56:36;;;;;;;1.95;0.70;;;4.80;82.10;;;;;;4978746;28;20544;-68
2021/11/27 03:59:05;;;;;;;2.67;0.90;;;4.70;82.10;;;;;;4963303;28;20103;-67
2021/11/27 04:01:33;;;;;;;1.47;0.67;;;4.80;82.10;;;;;;4962618;28;20078;-67
2021/11/27 04:04:05;;;;;;;1.40;0.63;;;4.70;82.10;;;;;;4965919;28;20074;-68
2021/11/27 04:06:35;;;;;;;1.65;0.63;;;4.80;82.20;;;;;;5050920;28;20046;-67
2021/11/27 04:09:05;;;;;;;3.28;0.70;;;4.80;82.30;;;;;;4965241;28;20108;-67
2021/11/27 04:11:35;;;;;;;2.03;0.88;;;4.80;82.20;;;;;;4984511;28;20415;-68
2021/11/27 04:14:07;;;;;;;3.80;1.08;;;4.80;82.40;;;;;;4972136;28;20070;-69
2021/11/27 04:16:39;;;;;;;3.70;1.17;;;4.70;82.30;;;;;;4983727;28;20147;-67
2021/11/27 04:19:07;;;;;;;2.08;1.40;;;4.70;82.40;;;;;;4966561;28;20058;-67
2021/11/27 04:21:35;;;;;;;1.55;0.50;;;4.70;82.40;;;;;;4966543;28;20138;-68
2021/11/27 04:24:03;;;;;;;2.20;0.80;;;4.70;82.50;;;;;;4966841;28;20291;-67
2021/11/27 04:26:33;;;;;;;3.30;0.82;;;4.70;82.60;;;;;;4981223;28;20056;-67
2021/11/27 04:29:00;;;;;;;1.63;0.80;;;4.70;82.60;;;;;;4981089;28;20058;-66
2021/11/27 04:31:30;;;;;;;1.33;0.63;;;4.70;82.70;;;;;;4982664;28;20368;-67
2021/11/27 04:33:58;;;;;;;1.02;0.57;;;4.70;82.60;;;;;;4983830;28;20046;-69
2021/11/27 04:36:26;;;;;;;3.00;0.50;;;4.70;82.70;;;;;;4973623;28;20070;-67
2021/11/27 04:38:53;;;;;;;2.40;1.65;;;4.70;82.80;;;;;;4967402;28;20407;-70
2021/11/27 04:41:21;;;;;;;1.15;0.70;;;4.70;82.90;;;;;;4967129;28;20513;-67
2021/11/27 04:43:49;;;;;;;4.15;0.88;;;4.70;83.00;;;;;;4983089;28;20053;-69
2021/11/27 04:46:16;;;;;;;1.13;0.63;;;4.80;83.00;;;;;;4967943;28;20104;-66
2021/11/27 04:48:44;;;;;;;1.10;0.45;;;4.70;83.10;;;;;;4951321;28;20055;-68
2021/11/27 04:51:13;;;;;;;1.63;0.60;;;4.70;83.00;;;;;;4977405;28;20671;-66
2021/11/27 04:53:42;;;;;;;0.93;0.60;;;4.70;83.10;;;;;;4979083;28;20047;-70
2021/11/27 04:56:09;;;;;;;1.40;0.70;;;4.70;83.10;;;;;;4978115;28;20235;-67
2021/11/27 04:58:36;;;;;;;1.35;0.68;;;4.80;83.10;;;;;;4979890;28;20329;-68
2021/11/27 05:01:06;;;;;;;1.00;0.45;;;4.80;83.10;;;;;;4955490;28;20253;-66
2021/11/27 05:03:54;;;;;;;0.60;0.57;;;4.80;83.10;;;;;;4940632;28;20059;-69
2021/11/27 05:06:22;;;;;;;1.02;0.50;;;4.80;83.10;;;;;;4957438;28;20045;-69
2021/11/27 05:08:50;;;;;;;0.98;0.38;;;4.80;83.10;;;;;;5018625;28;20046;-67
2021/11/27 05:11:18;;;;;;;2.55;0.82;;;4.80;83.10;;;;;;4937375;28;20051;-68
2021/11/27 05:13:48;;;;;;;0.93;0.50;;;4.80;83.20;;;;;;4955545;28;20050;-68
2021/11/27 05:16:15;;;;;;;0.98;0.52;;;4.90;83.30;;;;;;4939095;28;20488;-67
2021/11/27 05:18:43;;;;;;;2.08;0.57;;;4.90;83.30;;;;;;4947793;28;20049;-69
2021/11/27 05:21:31;;;;;;;0.82;0.40;;;4.90;83.30;;;;;;4956285;28;20125;-69
2021/11/27 05:24:00;;;;;;;1.42;0.50;;;4.80;83.40;;;;;;4938243;28;20051;-67
2021/11/27 05:26:46;;;;;;;1.77;0.57;;;4.80;83.30;;;;;;4970703;28;20065;-68
2021/11/27 05:29:32;;;;;;;0.90;0.40;;;4.90;83.40;;;;;;4974989;28;20061;-67
2021/11/27 05:32:08;;;;;;;0.90;0.52;;;4.90;83.40;;;;;;5053380;28;20137;-68
2021/11/27 05:34:40;;;;;;;1.58;0.60;;;4.90;83.30;;;;;;4973644;28;20176;-66
2021/11/27 05:37:08;;;;;;;2.38;0.82;;;4.90;83.20;;;;;;5051252;28;20125;-67
2021/11/27 05:39:39;;;;;;;2.73;0.70;;;4.90;83.20;;;;;;4976029;28;20058;-70
2021/11/27 05:42:06;;;;;;;1.52;0.88;;;4.90;83.30;;;;;;4974739;28;20453;-67
2021/11/27 05:44:43;;;;;;;2.15;0.90;;;4.90;83.40;;;;;;4959638;28;20103;-67
2021/11/27 05:47:11;;;;;;;1.20;0.55;;;4.90;83.40;;;;;;4953379;28;20498;-67
2021/11/27 05:49:38;;;;;;;1.63;0.68;;;4.90;83.40;;;;;;4957418;28;20046;-67
2021/11/27 05:52:14;;;;;;;0.98;0.80;;;4.90;83.40;;;;;;5059869;28;20057;-67
2021/11/27 05:54:42;;;;;;;3.38;1.05;;;4.90;83.30;;;;;;4974085;28;20140;-68
2021/11/27 05:57:09;;;;;;;2.00;1.10;;;4.90;83.20;;;;;;4971626;28;20050;-67
2021/11/27 05:59:36;;;;;;;0.57;0.32;;;4.90;83.20;;;;;;5056784;28;20403;-68
2021/11/27 06:02:03;;;;;;;1.52;0.60;;;4.90;83.30;;;;;;4972727;28;20061;-67
2021/11/27 06:04:30;;;;;;;1.13;0.50;;;4.90;83.40;;;;;;4972732;28;20427;-69
2021/11/27 06:06:57;;;;;;;1.98;0.50;;;4.90;83.40;;;;;;4975072;28;20403;-68
2021/11/27 06:09:24;;;;;;;1.65;0.80;;;4.90;83.50;;;;;;4979840;28;20070;-66
2021/11/27 06:11:53;;;;;;;2.83;0.85;;;4.90;83.60;;;;;;4979323;28;20696;-67
2021/11/27 06:14:20;;;;;;;0.68;0.50;;;4.90;83.70;;;;;;4975446;28;20061;-68
2021/11/27 06:16:47;;;;;;;2.55;0.90;;;4.90;83.80;;;;;;4979048;28;20170;-67
2021/11/27 06:19:14;;;;;;;1.55;0.80;;;4.90;83.90;;;;;;4975717;28;20524;-70
2021/11/27 06:21:41;;;;;;;1.58;0.60;;;4.90;83.90;;;;;;4976783;28;20511;-67
2021/11/27 06:24:08;;;;;;;1.17;0.77;;;4.90;83.90;;;;;;4978948;28;20521;-67
2021/11/27 06:26:36;;;;;;;1.65;0.60;;;4.90;84.00;;;;;;4976545;28;20050;-68
2021/11/27 06:29:04;;;;;;;1.98;0.80;;;4.90;84.00;;;;;;4976855;28;20054;-68
2021/11/27 06:31:32;;;;;;;2.08;0.80;;;4.90;84.00;;;;;;4977642;28;20129;-68
2021/11/27 06:34:01;;;;;;;3.75;1.10;;;4.90;84.00;;;;;;4974559;28;20095;-66
2021/11/27 06:36:34;;;;;;;1.98;1.00;;;4.90;83.90;;;;;;4976444;28;20965;-67
2021/11/27 06:39:01;;;;;;;2.20;0.50;;;4.90;83.90;;;;;;4974714;28;20051;-68
2021/11/27 06:41:30;;;;;;;2.33;0.95;;;4.90;83.80;;;;;;4977101;28;20471;-67
2021/11/27 06:44:17;;;;;;;1.15;0.50;;;4.90;83.70;;;;;;4976099;28;20066;-66
2021/11/27 06:46:44;;;;;;;1.40;0.65;;;4.90;83.70;;;;;;4978591;28;20133;-67
2021/11/27 06:49:11;;;;;;;1.02;0.50;;;4.90;83.70;;;;;;4972672;28;20067;-68
2021/11/27 06:51:38;;;;;;;1.45;0.68;;;4.90;83.60;;;;;;4975938;28;20378;-68
2021/11/27 06:54:05;;;;;;;1.42;0.40;;;4.90;83.60;;;;;;4976179;28;20430;-68
2021/11/27 06:56:32;;;;;;;2.72;1.05;;;4.90;83.70;;;;;;4970865;28;20046;-66
2021/11/27 06:58:59;;;;;;;2.42;0.70;;;4.90;83.60;;;;;;4974140;28;20148;-69
2021/11/27 07:01:47;;;;;;;2.58;1.00;;;4.90;83.60;;;;;;4976836;28;20058;-67
2021/11/27 07:04:33;;;;;;;1.45;0.80;;;4.90;83.60;;;;;;4975604;28;20057;-70
2021/11/27 07:07:19;;;;;;;2.20;0.68;;;4.90;83.60;;;;;;4975240;28;20077;-68
2021/11/27 07:09:52;;;;;;;3.97;1.95;;;4.90;83.70;;;;;;4961610;28;20042;-70
2021/11/27 07:12:35;;;;;;;3.65;1.30;;;4.90;83.70;;;;;;4967362;28;21122;-69
2021/11/27 07:15:03;;;;;;;6.78;1.60;;;5.00;83.80;;;;;;4957313;28;20054;-69
2021/11/27 07:17:32;;;;;;;5.90;1.70;;;4.90;83.80;;;;;;4979175;28;20047;-67
2021/11/27 07:20:01;;;;;;;3.67;1.08;;;4.90;83.80;;;;;;4978588;28;20042;-69
2021/11/27 07:22:34;;;;;;;4.18;1.33;;;4.90;83.90;;;;;;4979010;28;20422;-70
2021/11/27 07:25:01;;;;;;;1.75;1.00;;;5.00;83.80;;;;;;4979346;28;20043;-69
2021/11/27 07:27:53;;;;;;;2.08;0.88;;;5.00;83.80;;;;;;4978787;28;20050;-67
2021/11/27 07:30:20;;;;;;;1.38;0.70;;;5.00;83.70;;;;;;4978897;28;20042;-69
2021/11/27 07:32:50;;;;;;;1.92;0.90;;;5.00;83.70;;;;;;4966760;28;20046;-68
2021/11/27 07:35:17;;;;;;;1.52;0.73;;;5.00;83.70;;;;;;4977895;28;20057;-67
2021/11/27 07:37:44;;;;;;;1.50;0.80;;;5.00;83.70;;;;;;4978957;28;20093;-67
2021/11/27 07:40:11;;;;;;;3.30;0.98;;;5.00;83.70;;;;;;4979743;28;20053;-67
2021/11/27 07:42:39;;;;;;;4.65;1.20;;;5.00;83.70;;;;;;4978006;28;20138;-68
2021/11/27 07:45:27;;;;;;;2.00;0.90;;;5.10;83.60;;;;;;4975112;28;20495;-69
2021/11/27 07:48:14;;;;;;;1.45;0.60;;;5.10;83.70;;;;;;4980211;28;20180;-67
2021/11/27 07:51:01;;;;;;;1.77;0.60;;;5.10;83.70;;;;;;4978542;28;20502;-67
2021/11/27 07:53:49;;;;;;;1.27;0.80;;;5.10;83.70;;;;;;4975815;28;20077;-69
2021/11/27 07:56:16;;;;;;;0.68;0.55;;;5.00;83.70;;;;;;4977811;28;20050;-67
2021/11/27 07:58:43;;;;;;;3.28;1.10;;;5.10;83.70;;;;;;4979966;28;20308;-67
2021/11/27 08:01:10;;;;;;;8.95;3.28;;;5.10;83.70;;;;;;4976249;28;20050;-67
2021/11/27 08:03:39;;;;;;;6.45;3.30;;;5.10;83.70;;;;;;4976604;28;20184;-67
2021/11/27 08:06:07;;;;;;;6.35;2.50;;;5.10;83.70;;;;;;4978735;28;20872;-67
2021/11/27 08:08:34;;;;;;;5.05;1.40;;;5.10;83.70;;;;;;4978956;28;20046;-69
2021/11/27 08:11:01;;;;;;;3.05;1.25;;;5.10;83.70;;;;;;4975904;28;20047;-66
2021/11/27 08:13:31;;;;;;;2.93;1.07;;;5.10;83.70;;;;;;4977930;28;20050;-68
2021/11/27 08:15:58;;;;;;;45.67;16.85;;;5.20;83.80;;;;;;4978299;28;20121;-68
2021/11/27 08:18:26;;;;;;;47.70;19.65;;;5.20;83.80;;;;;;4977917;28;20050;-67
2021/11/27 08:20:55;;;;;;;43.13;14.40;;;5.10;83.60;;;;;;4977164;28;20050;-69
2021/11/27 08:23:22;;;;;;;59.50;21.17;;;5.20;83.50;;;;;;4978984;28;20054;-70
2021/11/27 08:25:48;;;;;;;59.70;22.30;;;5.20;83.50;;;;;;4979020;28;20042;-69
2021/11/27 08:28:15;;;;;;;42.65;15.45;;;5.20;83.50;;;;;;4973703;28;20054;-66
2021/11/27 08:30:42;;;;;;;22.60;9.20;;;5.20;83.50;;;;;;4977100;28;20047;-68
2021/11/27 08:33:09;;;;;;;16.75;6.18;;;5.20;83.50;;;;;;4978305;28;20559;-70
2021/11/27 08:35:36;;;;;;;10.52;4.32;;;5.20;83.50;;;;;;4975648;28;20498;-67
2021/11/27 08:38:05;;;;;;;10.63;4.00;;;5.20;83.40;;;;;;4973529;28;20058;-66
2021/11/27 08:40:32;;;;;;;5.32;2.33;;;5.20;83.40;;;;;;4976120;28;20042;-69
2021/11/27 08:42:59;;;;;;;5.65;2.55;;;5.20;83.40;;;;;;4977475;28;20054;-70
2021/11/27 08:45:27;;;;;;;3.00;1.40;;;5.20;83.40;;;;;;4974928;28;20043;-67
2021/11/27 08:47:54;;;;;;;4.18;1.25;;;5.20;83.40;;;;;;4976743;28;20055;-68
2021/11/27 08:50:21;;;;;;;2.10;0.75;;;5.20;83.40;;;;;;4974919;28;20046;-68
2021/11/27 08:52:49;;;;;;;2.33;0.90;;;5.30;83.50;;;;;;4982351;28;20050;-68
2021/11/27 08:55:18;;;;;;;2.83;0.85;;;5.30;83.50;;;;;;4972891;28;20054;-68
2021/11/27 08:57:46;;;;;;;2.30;0.90;;;5.30;83.60;;;;;;4973280;28;20051;-68
2021/11/27 09:00:14;;;;;;;1.17;0.47;;;5.30;83.60;;;;;;4973078;28;20054;-68
2021/11/27 09:02:41;;;;;;;2.00;0.90;;;5.30;83.60;;;;;;4973586;28;20616;-68
2021/11/27 09:05:09;;;;;;;1.88;1.00;;;5.30;83.70;;;;;;4972918;28;20048;-67
2021/11/27 09:07:36;;;;;;;1.83;0.68;;;5.30;83.70;;;;;;4980574;28;20061;-69
2021/11/27 09:10:07;;;;;;;0.85;0.45;;;5.30;83.70;;;;;;4960519;28;20418;-68
2021/11/27 09:12:36;;;;;;;1.00;0.55;;;5.40;83.70;;;;;;4977515;28;20050;-68
2021/11/27 09:15:04;;;;;;;0.90;0.50;;;5.40;83.60;;;;;;4979281;28;20046;-68
2021/11/27 09:17:31;;;;;;;3.45;0.70;;;5.40;83.50;;;;;;4977117;28;20053;-67
2021/11/27 09:19:58;;;;;;;0.65;0.40;;;5.40;83.60;;;;;;4975450;28;20129;-70
2021/11/27 09:22:25;;;;;;;2.45;1.90;;;5.40;83.60;;;;;;4977484;28;20054;-69
2021/11/27 09:24:52;;;;;;;1.35;0.63;;;5.40;83.50;;;;;;4975793;28;20050;-68
2021/11/27 09:27:19;;;;;;;2.25;1.08;;;5.40;83.60;;;;;;4977995;28;20050;-68
2021/11/27 09:29:47;;;;;;;2.35;0.88;;;5.40;83.60;;;;;;4973181;28;20062;-67
2021/11/27 09:32:15;;;;;;;3.47;1.65;;;5.40;83.60;;;;;;4958865;28;20391;-67
2021/11/27 09:34:43;;;;;;;1.50;0.80;;;5.40;83.50;;;;;;4978107;28;20478;-66
2021/11/27 09:37:13;;;;;;;1.92;1.17;;;5.50;83.60;;;;;;4975372;28;20078;-68
2021/11/27 09:39:43;;;;;;;1.75;0.85;;;5.50;83.70;;;;;;4974377;28;20050;-69
2021/11/27 09:42:14;;;;;;;2.50;1.02;;;5.50;83.70;;;;;;4974973;28;20484;-68
2021/11/27 09:44:49;;;;;;;22.60;5.47;;;5.50;83.70;;;;;;4977692;28;20050;-68
2021/11/27 09:47:16;;;;;;;21.13;6.43;;;5.50;83.70;;;;;;4971593;28;20141;-68
2021/11/27 09:49:44;;;;;;;34.92;7.53;;;5.50;83.70;;;;;;4972601;28;20470;-67
2021/11/27 09:52:12;;;;;;;43.95;9.13;;;5.50;83.50;;;;;;4976696;28;20064;-68
2021/11/27 09:54:39;;;;;;;39.85;11.18;;;5.50;83.30;;;;;;4979637;28;20488;-68
2021/11/27 09:57:09;;;;;;;31.83;8.13;;;5.50;83.20;;;;;;4976224;28;20055;-68
2021/11/27 09:59:39;;;;;;;29.90;8.38;;;5.50;83.30;;;;;;4976424;28;20050;-67
2021/11/27 10:02:10;;;;;;;33.60;8.02;;;5.50;83.10;;;;;;4976470;28;20046;-68
2021/11/27 10:04:40;;;;;;;18.02;5.65;;;5.50;83.20;;;;;;4977135;28;20042;-67
2021/11/27 10:07:11;;;;;;;16.98;4.68;;;5.50;83.20;;;;;;4972835;28;20046;-69
2021/11/27 10:09:38;;;;;;;10.25;2.42;;;5.50;83.20;;;;;;4975539;28;20518;-70
2021/11/27 10:12:08;;;;;;;4.00;2.00;;;5.60;82.80;;;;;;4973741;28;20046;-68
2021/11/27 10:14:37;;;;;;;5.53;2.17;;;5.60;82.80;;;;;;4976375;28;20050;-69
2021/11/27 10:17:12;;;;;;;4.00;1.30;;;5.60;82.70;;;;;;4967668;28;20042;-68
2021/11/27 10:19:56;;;;;;;2.33;1.00;;;5.60;82.80;;;;;;4975938;28;20076;-68
2021/11/27 10:22:27;;;;;;;12.50;5.00;;;5.60;82.70;;;;;;4974952;28;20051;-69
2021/11/27 10:24:55;;;;;;;16.35;5.28;;;5.60;82.70;;;;;;4966519;28;20042;-68
2021/11/27 10:27:25;;;;;;;11.10;3.55;;;5.60;82.60;;;;;;4974005;28;20043;-70
2021/11/27 10:30:01;;;;;;;28.35;6.97;;;5.60;82.60;;;;;;4976082;28;20074;-69
2021/11/27 10:32:38;;;;;;;18.70;5.07;;;5.60;82.90;;;;;;4972919;28;20699;-68
2021/11/27 10:35:08;;;;;;;10.57;3.70;;;5.70;83.00;;;;;;4975107;28;20053;-69
2021/11/27 10:37:39;;;;;;;5.10;1.75;;;5.70;82.90;;;;;;4978817;28;20057;-68
2021/11/27 10:40:09;;;;;;;2.95;1.50;;;5.70;83.10;;;;;;4976631;28;20038;-68
2021/11/27 10:42:38;;;;;;;2.47;0.87;;;5.70;83.10;;;;;;4982023;28;20434;-68
2021/11/27 10:45:17;;;;;;;1.65;0.93;;;5.70;83.00;;;;;;4976867;28;20472;-69
2021/11/27 10:47:47;;;;;;;10.43;2.40;;;5.70;83.00;;;;;;4980222;28;20054;-68
2021/11/27 10:50:19;;;;;;;24.75;6.32;;;5.70;83.00;;;;;;4976277;28;20047;-68
2021/11/27 10:52:48;;;;;;;24.60;6.88;;;5.70;82.90;;;;;;4979787;28;20055;-66
2021/11/27 10:55:22;;;;;;;12.05;4.82;;;5.70;82.90;;;;;;4977345;28;20054;-68
2021/11/27 10:57:51;;;;;;;10.35;3.83;;;5.70;83.00;;;;;;4978060;28;20132;-68
2021/11/27 11:00:31;;;;;;;9.57;3.40;;;5.70;83.00;;;;;;4972793;28;20046;-69
2021/11/27 11:03:02;;;;;;;8.95;2.55;;;5.70;83.20;;;;;;4976153;28;20465;-69
2021/11/27 11:05:35;;;;;;;5.97;2.25;;;5.70;83.20;;;;;;4982176;28;20518;-70
2021/11/27 11:08:04;;;;;;;10.75;4.80;;;5.70;83.10;;;;;;4977278;28;20073;-68
2021/11/27 11:10:33;;;;;;;15.48;4.43;;;5.70;83.00;;;;;;4978042;28;20049;-68
2021/11/27 11:13:02;;;;;;;14.15;5.05;;;5.70;83.20;;;;;;4979452;28;20510;-68
2021/11/27 11:15:31;;;;;;;12.30;5.07;;;5.70;83.20;;;;;;4978018;28;20053;-70
2021/11/27 11:18:21;;;;;;;6.65;3.40;;;5.70;83.20;;;;;;4980765;28;20058;-69
2021/11/27 11:20:50;;;;;;;6.35;1.70;;;5.70;83.20;;;;;;4978587;28;20048;-68
2021/11/27 11:23:23;;;;;;;3.55;1.30;;;5.70;83.20;;;;;;4976513;28;20514;-69
2021/11/27 11:26:03;;;;;;;2.38;1.02;;;5.70;83.10;;;;;;4978001;28;20065;-66
2021/11/27 11:28:33;;;;;;;5.32;1.58;;;5.60;83.20;;;;;;4976004;28;20046;-68
2021/11/27 11:31:05;;;;;;;1.58;1.05;;;5.60;83.30;;;;;;4976615;28;20394;-67
2021/11/27 11:33:35;;;;;;;2.00;1.02;;;5.60;83.30;;;;;;4979778;28;20038;-70
2021/11/27 11:36:05;;;;;;;3.70;1.25;;;5.60;83.40;;;;;;4977674;28;20074;-69
2021/11/27 11:38:32;;;;;;;3.40;1.03;;;5.60;83.50;;;;;;4973056;28;20049;-68
2021/11/27 11:40:59;;;;;;;3.40;1.30;;;5.60;83.50;;;;;;4979036;28;20062;-68
2021/11/27 11:43:27;;;;;;;3.92;1.52;;;5.60;83.60;;;;;;4978663;28;20050;-69
2021/11/27 11:45:54;;;;;;;2.33;1.15;;;5.60;83.60;;;;;;4974590;28;20096;-70
2021/11/27 11:48:24;;;;;;;3.75;1.35;;;5.60;83.60;;;;;;4977836;28;20050;-68
2021/11/27 11:51:02;;;;;;;1.95;1.30;;;5.60;83.70;;;;;;4975477;28;20046;-69
2021/11/27 11:53:40;;;;;;;1.42;0.80;;;5.60;83.60;;;;;;4975349;28;20432;-67
2021/11/27 11:56:10;;;;;;;3.88;0.90;;;5.60;83.80;;;;;;4975992;28;20046;-67
2021/11/27 11:58:38;;;;;;;3.53;1.47;;;5.60;83.70;;;;;;4976729;28;20073;-68
2021/11/27 12:01:14;;;;;;;2.70;1.13;;;5.60;83.70;;;;;;4976208;28;20502;-68
2021/11/27 12:03:43;;;;;;;2.70;1.02;;;5.60;83.80;;;;;;4969755;28;20051;-69
2021/11/27 12:06:15;;;;;;;2.05;1.13;;;5.60;83.80;;;;;;4978741;28;20037;-68
2021/11/27 12:09:05;;;;;;;1.70;1.05;;;5.60;83.80;;;;;;4976971;28;20133;-68
2021/11/27 12:12:20;;;;;;;3.42;1.40;;;5.60;83.80;;;;;;4976877;28;20133;-70
2021/11/27 12:14:58;;;;;;;2.28;1.25;;;5.60;83.80;;;;;;4976200;28;20042;-69
2021/11/27 12:17:26;;;;;;;3.65;1.90;;;5.60;83.80;;;;;;4976304;28;20488;-68
2021/11/27 12:19:54;;;;;;;2.55;1.30;;;5.70;83.80;;;;;;4976933;28;20786;-69
2021/11/27 12:22:43;;;;;;;2.50;1.35;;;5.70;83.80;;;;;;4974904;28;20058;-68
2021/11/27 12:25:26;;;;;;;2.55;1.45;;;5.70;83.80;;;;;;4977898;28;20123;-70
2021/11/27 12:28:14;;;;;;;3.70;1.88;;;5.70;83.90;;;;;;4979658;28;20141;-68
2021/11/27 12:30:57;;;;;;;4.88;2.10;;;5.70;83.80;;;;;;4975198;28;20050;-68
2021/11/27 12:33:54;;;;;;;4.60;2.03;;;5.70;83.80;;;;;;4975806;28;20062;-68
2021/11/27 12:36:45;;;;;;;3.97;1.92;;;5.70;83.70;;;;;;4952544;28;20399;-69
2021/11/27 12:39:17;;;;;;;28.35;11.77;;;5.70;83.60;;;;;;4973594;28;20133;-68
2021/11/27 12:41:47;;;;;;;91.30;31.33;;;5.70;83.50;;;;;;4976374;28;20521;-68
2021/11/27 12:44:17;;;;;;;49.70;18.33;;;5.70;83.40;;;;;;4978397;28;20617;-69
2021/11/27 12:46:46;;;;;;;24.33;11.50;;;5.70;83.30;;;;;;4977099;28;20049;-68
2021/11/27 12:49:59;;;;;;;15.05;5.55;;;5.70;83.20;;;;;;4976060;28;20054;-69
2021/11/27 12:52:32;;;;;;;10.10;3.55;;;5.60;83.10;;;;;;4987774;28;20058;-69
2021/11/27 12:55:33;;;;;;;3.78;1.80;;;5.60;83.10;;;;;;4978417;28;20104;-70
2021/11/27 12:58:23;;;;;;;6.00;2.53;;;5.60;82.60;;;;;;4977165;28;20062;-68
2021/11/27 13:00:50;;;;;;;5.25;2.72;;;5.60;82.70;;;;;;4976288;28;20053;-69
2021/11/27 13:03:17;;;;;;;7.80;2.17;;;5.60;82.60;;;;;;4976736;28;20054;-68
2021/11/27 13:05:44;;;;;;;4.68;1.90;;;5.60;82.60;;;;;;4975112;28;20054;-68
2021/11/27 13:08:12;;;;;;;2.78;1.40;;;5.60;82.70;;;;;;4975968;28;20050;-69
2021/11/27 13:10:43;;;;;;;2.80;1.35;;;5.50;82.70;;;;;;4979915;28;20047;-68
2021/11/27 13:13:17;;;;;;;1.98;1.02;;;5.60;82.70;;;;;;4977442;28;20066;-68
2021/11/27 13:15:44;;;;;;;2.20;1.30;;;5.70;82.60;;;;;;4983133;28;20054;-71